Time;durP1;ratioP1;P1;durP2;ratioP2;P2;SDS_P1;SDS_P2;PMS_P1;PMS_P2;Temp;Humidity;BMP_temperature;BMP_pressure;BME280_temperature;BME280_humidity;BME280_pressure;Samples;Min_cycle;Max_cycle;Signal;HPM_P1;HPM_P2
2022/01/28 00:00:14;;;;;;;14.68;9.95;;;;;;;1.40;100.00;97388.03;5173263;27;20047;-55
2022/01/28 00:05:25;;;;;;;16.08;9.82;;;;;;;1.34;100.00;97387.47;5172915;27;20417;-53
2022/01/28 00:07:53;;;;;;;18.60;9.55;;;;;;;1.40;100.00;97383.41;5173023;27;20053;-51
2022/01/28 00:10:21;;;;;;;16.40;9.75;;;;;;;1.35;100.00;97386.34;5172605;27;20095;-52
2022/01/28 00:15:51;;;;;;;16.90;10.48;;;;;;;1.45;100.00;97376.16;5172969;27;20046;-53
2022/01/28 00:37:59;;;;;;;;;;;;;;;1.41;100.00;97341.75;5173030;27;20141;-52
2022/01/28 00:40:24;;;;;;;21.25;12.57;;;;;;;1.40;100.00;97340.19;5172195;27;19922;-55
2022/01/28 00:42:51;;;;;;;25.95;13.18;;;;;;;1.41;100.00;97343.69;5172209;27;20053;-53
2022/01/28 00:45:18;;;;;;;24.33;12.82;;;;;;;1.40;100.00;97332.09;5172117;27;20103;-54
2022/01/28 00:47:46;;;;;;;22.58;12.05;;;;;;;1.41;100.00;97330.97;5172541;27;20389;-54
2022/01/28 00:50:14;;;;;;;22.95;11.68;;;;;;;1.42;100.00;97329.03;5172172;27;20050;-54
2022/01/28 00:52:41;;;;;;;24.42;12.57;;;;;;;1.37;100.00;97324.69;5172518;27;20492;-51
2022/01/28 00:55:08;;;;;;;25.65;13.57;;;;;;;1.39;100.00;97321.63;5172054;27;20539;-54
2022/01/28 00:57:34;;;;;;;24.45;12.48;;;;;;;1.47;100.00;97311.81;5172281;27;20090;-53
2022/01/28 01:00:01;;;;;;;21.52;12.55;;;;;;;1.49;100.00;97315.69;5172038;27;20047;-51
2022/01/28 01:02:27;;;;;;;20.58;11.20;;;;;;;1.50;100.00;97319.19;5172063;27;20055;-51
2022/01/28 01:04:54;;;;;;;19.13;11.15;;;;;;;1.47;100.00;97315.28;5171907;27;20050;-54
2022/01/28 01:07:20;;;;;;;19.40;10.75;;;;;;;1.38;100.00;97307.34;5172197;27;20102;-51
2022/01/28 01:09:48;;;;;;;17.58;10.80;;;;;;;1.36;100.00;97311.53;5171949;27;20504;-51
2022/01/28 01:12:17;;;;;;;18.77;10.85;;;;;;;1.31;100.00;97309.88;5171804;27;20052;-52
2022/01/28 01:14:45;;;;;;;19.58;10.55;;;;;;;1.28;100.00;97288.19;5172159;27;20050;-51
2022/01/28 01:17:23;;;;;;;17.45;10.38;;;;;;;1.32;100.00;97297.94;5171350;27;20178;-52
2022/01/28 01:19:54;;;;;;;19.13;9.98;;;;;;;1.28;100.00;97294.38;5172248;27;20141;-53
2022/01/28 01:22:20;;;;;;;18.65;10.50;;;;;;;1.27;100.00;97287.44;5171667;27;20182;-51
2022/01/28 01:24:50;;;;;;;23.55;11.95;;;;;;;1.33;100.00;97279.81;5171760;27;20114;-52
2022/01/28 01:27:18;;;;;;;15.77;9.45;;;;;;;1.30;100.00;97284.03;5171726;27;20110;-51
2022/01/28 01:29:45;;;;;;;18.33;10.43;;;;;;;1.31;100.00;97279.41;5171753;27;20066;-52
2022/01/28 01:32:15;;;;;;;21.55;10.20;;;;;;;1.34;100.00;97266.00;5171684;27;20051;-51
2022/01/28 01:34:42;;;;;;;16.67;10.27;;;;;;;1.36;100.00;97271.03;5171620;27;20054;-51
2022/01/28 01:37:09;;;;;;;18.50;10.70;;;;;;;1.37;100.00;97269.91;5171776;27;20046;-52
2022/01/28 01:39:36;;;;;;;16.30;9.73;;;;;;;1.41;100.00;97263.44;5172025;27;20405;-52
2022/01/28 01:42:11;;;;;;;18.08;10.15;;;;;;;1.43;100.00;97249.59;5175557;27;20073;-50
2022/01/28 01:44:59;;;;;;;16.90;10.60;;;;;;;1.41;100.00;97259.97;5175034;27;20141;-55
2022/01/28 01:52:56;;;;;;;19.50;10.75;;;;;;;1.36;100.00;97247.50;5175048;27;20045;-52
2022/01/28 01:55:22;;;;;;;18.42;10.63;;;;;;;1.42;100.00;97243.41;5175166;27;20417;-54
2022/01/28 01:57:49;;;;;;;20.25;11.80;;;;;;;1.40;100.00;97236.81;5174863;27;20052;-54
2022/01/28 02:00:16;;;;;;;20.17;12.05;;;;;;;1.44;100.00;97226.09;5175149;27;20042;-53
2022/01/28 02:02:43;;;;;;;23.98;12.45;;;;;;;1.47;100.00;97225.41;5174654;27;20101;-52
2022/01/28 02:05:10;;;;;;;17.73;10.95;;;;;;;1.44;100.00;97232.28;5174635;27;20081;-53
2022/01/28 02:07:38;;;;;;;19.60;11.88;;;;;;;1.49;100.00;97228.50;5174722;27;20066;-51
2022/01/28 02:10:05;;;;;;;19.90;11.20;;;;;;;1.46;100.00;97229.22;5174708;27;20132;-51
2022/01/28 02:12:44;;;;;;;17.92;11.05;;;;;;;1.45;100.00;97225.72;5174730;27;20057;-52
2022/01/28 02:15:10;;;;;;;20.67;11.93;;;;;;;1.46;100.00;97219.19;5174573;27;20050;-52
2022/01/28 02:17:36;;;;;;;18.60;11.60;;;;;;;1.47;100.00;97228.88;5174318;27;20624;-53
2022/01/28 02:20:07;;;;;;;21.90;12.93;;;;;;;1.50;100.00;97225.47;5174521;27;20416;-52
2022/01/28 02:22:35;;;;;;;27.38;14.35;;;;;;;1.51;100.00;97224.31;5174816;27;20050;-51
2022/01/28 02:25:02;;;;;;;25.33;13.55;;;;;;;1.51;100.00;97218.94;5174282;27;20053;-53
2022/01/28 02:27:28;;;;;;;27.38;14.15;;;;;;;1.53;100.00;97215.84;5174475;27;20537;-52
2022/01/28 02:29:56;;;;;;;29.40;15.02;;;;;;;1.50;100.00;97213.84;5174280;27;20050;-52
2022/01/28 02:32:22;;;;;;;27.80;14.95;;;;;;;1.53;100.00;97207.75;5174328;27;20142;-54
2022/01/28 02:34:48;;;;;;;25.92;14.50;;;;;;;1.53;100.00;97213.16;5174461;27;20082;-51
2022/01/28 02:37:15;;;;;;;22.73;14.20;;;;;;;1.53;100.00;97211.22;5174288;27;20055;-52
2022/01/28 02:39:42;;;;;;;29.38;16.27;;;;;;;1.59;100.00;97200.94;5174524;27;20102;-52
2022/01/28 02:42:17;;;;;;;25.48;15.00;;;;;;;1.55;100.00;97205.50;5174105;27;20050;-55
2022/01/28 02:44:48;;;;;;;25.65;14.27;;;;;;;1.57;100.00;97209.41;5174471;27;20443;-51
2022/01/28 02:47:17;;;;;;;29.25;14.98;;;;;;;1.57;100.00;97214.03;5174186;27;20457;-53
2022/01/28 02:49:44;;;;;;;26.08;13.50;;;;;;;1.56;100.00;97205.13;5174517;27;20050;-51
2022/01/28 02:52:19;;;;;;;25.52;14.77;;;;;;;1.60;100.00;97200.59;5173417;27;20421;-55
2022/01/28 02:54:48;;;;;;;;;;;;;;;1.56;100.00;97201.66;5174467;27;20102;-52
2022/01/28 02:57:19;;;;;;;26.90;13.98;;;;;;;1.58;100.00;97204.78;5173951;27;19923;-53
2022/01/28 02:59:45;;;;;;;29.50;15.32;;;;;;;1.59;100.00;97198.25;5174105;27;20580;-54
2022/01/28 03:02:11;;;;;;;25.90;15.68;;;;;;;1.63;100.00;97197.19;5174091;27;20077;-52
2022/01/28 03:05:02;;;;;;;28.63;16.10;;;;;;;1.67;100.00;97205.38;5173846;27;20428;-53
2022/01/28 03:07:28;;;;;;;27.15;14.35;;;;;;;1.63;100.00;97208.00;5174203;27;20428;-51
2022/01/28 03:10:25;;;;;;;26.67;14.82;;;;;;;1.58;100.00;97202.88;5173675;27;20050;-52
2022/01/28 03:13:02;;;;;;;25.73;13.90;;;;;;;1.61;100.00;97206.78;5173676;27;20047;-54
2022/01/28 03:15:28;;;;;;;28.98;15.20;;;;;;;1.62;100.00;97197.53;5173975;27;20096;-51
2022/01/28 03:18:07;;;;;;;25.83;15.40;;;;;;;1.62;100.00;97195.63;5173099;27;20058;-52
2022/01/28 03:20:39;;;;;;;26.75;15.07;;;;;;;1.65;100.00;97200.31;5174089;27;20093;-51
2022/01/28 03:23:05;;;;;;;30.92;16.35;;;;;;;1.64;100.00;97201.47;5173574;27;20042;-53
2022/01/28 03:25:34;;;;;;;28.48;15.13;;;;;;;1.66;100.00;97190.28;5173480;27;20050;-55
2022/01/28 03:28:01;;;;;;;26.60;14.18;;;;;;;1.63;100.00;97199.09;5173363;27;20406;-52
2022/01/28 03:30:27;;;;;;;29.73;15.70;;;;;;;1.64;100.00;97196.06;5173511;27;20050;-54
2022/01/28 03:32:53;;;;;;;24.67;14.73;;;;;;;1.66;100.00;97187.59;5173209;27;20050;-53
2022/01/28 03:35:20;;;;;;;27.88;14.55;;;;;;;1.66;100.00;97182.19;5173374;27;20500;-51
2022/01/28 03:37:47;;;;;;;28.40;15.18;;;;;;;1.67;100.00;97174.84;5173313;27;20497;-55
2022/01/28 03:40:18;;;;;;;26.48;14.85;;;;;;;1.65;100.00;97183.34;5173319;27;20055;-51
2022/01/28 03:42:45;;;;;;;26.08;14.75;;;;;;;1.68;100.00;97176.44;5173335;27;20057;-51
2022/01/28 03:45:11;;;;;;;29.88;16.08;;;;;;;1.73;100.00;97184.25;5173104;27;20103;-55
2022/01/28 03:47:37;;;;;;;32.80;16.33;;;;;;;1.71;100.00;97176.53;5173325;27;20084;-52
2022/01/28 03:50:04;;;;;;;27.95;15.27;;;;;;;1.68;100.00;97176.44;5173108;27;20050;-56
2022/01/28 03:52:30;;;;;;;28.40;14.93;;;;;;;1.72;100.00;97178.06;5173119;27;20042;-53
2022/01/28 03:54:57;;;;;;;26.33;14.70;;;;;;;1.76;100.00;97178.16;5172977;27;20058;-55
2022/01/28 03:57:23;;;;;;;29.00;14.65;;;;;;;1.70;100.00;97177.66;5172912;27;20042;-52
2022/01/28 03:59:50;;;;;;;27.42;14.23;;;;;;;1.68;100.00;97169.13;5172827;27;20072;-52
2022/01/28 04:02:20;;;;;;;26.70;14.75;;;;;;;1.67;100.00;97167.56;5172189;27;20081;-53
2022/01/28 04:13:02;;;;;;;27.42;14.75;;;;;;;1.79;100.00;97169.31;5173138;27;19929;-51
2022/01/28 04:15:38;;;;;;;24.42;13.35;;;;;;;1.82;100.00;97169.41;5173003;27;20049;-54
2022/01/28 04:18:04;;;;;;;28.60;15.02;;;;;;;1.88;100.00;97170.69;5172124;27;20050;-54
2022/01/28 04:20:31;;;;;;;34.22;14.52;;;;;;;1.88;100.00;97165.28;5172547;27;20096;-52
2022/01/28 04:22:57;;;;;;;31.30;15.65;;;;;;;1.87;100.00;97181.84;5172684;27;20054;-53
2022/01/28 04:25:23;;;;;;;25.10;14.02;;;;;;;1.81;100.00;97181.34;5172330;27;20054;-54
2022/01/28 04:27:50;;;;;;;24.63;12.93;;;;;;;1.86;100.00;97172.94;5172457;27;20072;-54
2022/01/28 04:30:16;;;;;;;29.10;14.43;;;;;;;1.94;100.00;97173.13;5172256;27;20073;-52
2022/01/28 04:32:46;;;;;;;31.48;15.02;;;;;;;1.95;100.00;97180.84;5172676;27;20057;-52
2022/01/28 04:35:12;;;;;;;24.90;13.88;;;;;;;1.93;100.00;97187.75;5172208;27;20102;-52
2022/01/28 04:37:46;;;;;;;21.70;14.20;;;;;;;1.95;100.00;97185.47;5172553;27;20057;-52
2022/01/28 04:40:14;;;;;;;24.60;14.35;;;;;;;1.96;100.00;97182.41;5172051;27;20053;-51
2022/01/28 04:42:56;;;;;;;29.38;13.88;;;;;;;1.96;100.00;97185.09;5172230;27;20094;-53
2022/01/28 04:45:30;;;;;;;28.25;14.35;;;;;;;1.93;100.00;97179.63;5172165;27;20054;-52
2022/01/28 04:48:07;;;;;;;30.38;14.63;;;;;;;1.96;100.00;97178.94;5171784;27;20496;-55
2022/01/28 04:50:43;;;;;;;23.80;13.63;;;;;;;2.00;100.00;97187.88;5172465;27;20089;-54
2022/01/28 04:53:22;;;;;;;22.85;13.40;;;;;;;1.98;100.00;97185.53;5172162;27;20074;-54
2022/01/28 04:56:05;;;;;;;30.08;14.07;;;;;;;1.95;100.00;97177.38;5172049;27;20146;-55
2022/01/28 05:04:07;;;;;;;21.98;12.73;;;;;;;2.08;100.00;97174.16;5158402;27;20106;-56
2022/01/28 05:15:21;;;;;;;22.33;13.30;;;;;;;2.69;100.00;97196.88;5112797;27;20429;-60
2022/01/28 05:23:42;;;;;;;17.67;11.38;;;;;;;2.99;100.00;97258.47;5154840;27;20050;-49
2022/01/28 05:26:34;;;;;;;17.85;11.73;;;;;;;3.05;100.00;97278.69;5154856;27;20046;-49
2022/01/28 05:29:00;;;;;;;21.98;12.50;;;;;;;2.96;100.00;97297.06;5174820;27;20156;-49
2022/01/28 05:31:26;;;;;;;25.27;12.50;;;;;;;3.06;100.00;97324.31;5175794;27;20098;-48
2022/01/28 05:33:53;;;;;;;23.20;11.80;;;;;;;2.97;100.00;97340.03;5175265;27;20256;-51
2022/01/28 05:36:20;;;;;;;23.75;11.55;;;;;;;2.87;100.00;97345.25;5158956;27;20055;-50
2022/01/28 05:38:46;;;;;;;21.95;12.10;;;;;;;2.90;100.00;97347.22;5175199;27;20125;-54
2022/01/28 05:41:13;;;;;;;18.55;10.02;;;;;;;2.90;100.00;97363.47;5174505;27;20046;-61
2022/01/28 05:43:40;;;;;;;21.63;10.98;;;;;;;3.90;100.00;97338.84;5175015;27;20055;-51
2022/01/28 05:46:07;;;;;;;21.65;11.48;;;;;;;3.66;100.00;97388.78;5174607;27;20054;-53
2022/01/28 05:48:34;;;;;;;29.77;11.88;;;;;;;3.40;100.00;97427.47;5175028;27;20054;-51
2022/01/28 05:51:00;;;;;;;25.15;12.95;;;;;;;3.27;100.00;97436.91;5174908;27;20104;-53
2022/01/28 05:53:27;;;;;;;21.80;12.55;;;;;;;3.11;100.00;97428.06;5174879;27;20046;-53
2022/01/28 05:55:53;;;;;;;17.83;11.70;;;;;;;3.01;100.00;97434.84;5174769;27;20054;-53
2022/01/28 05:58:20;;;;;;;23.90;12.95;;;;;;;2.97;100.00;97423.19;5175084;27;20118;-51
2022/01/28 06:00:46;;;;;;;21.67;12.27;;;;;;;2.94;100.00;97413.84;5174408;27;20141;-54
2022/01/28 06:03:12;;;;;;;26.88;12.82;;;;;;;2.92;100.00;97409.91;5174608;27;20051;-54
2022/01/28 06:05:38;;;;;;;21.13;11.32;;;;;;;3.00;100.00;97406.19;5174520;27;20052;-52
2022/01/28 06:08:05;;;;;;;25.08;12.75;;;;;;;3.01;100.00;97400.44;5174725;27;20046;-51
2022/01/28 06:10:32;;;;;;;22.90;11.95;;;;;;;3.02;100.00;97403.91;5174433;27;20057;-53
2022/01/28 06:12:58;;;;;;;26.60;12.50;;;;;;;3.05;100.00;97400.50;5174249;27;20085;-52
2022/01/28 06:15:24;;;;;;;22.80;11.85;;;;;;;3.10;100.00;97399.41;5174928;27;20046;-51
2022/01/28 06:17:50;;;;;;;25.50;13.35;;;;;;;3.00;100.00;97409.72;5174014;27;20046;-54
2022/01/28 06:20:19;;;;;;;23.70;12.75;;;;;;;3.02;100.00;97407.41;5174100;27;20058;-52
2022/01/28 06:22:46;;;;;;;25.50;11.80;;;;;;;2.97;100.00;97413.13;5174086;27;20069;-52
2022/01/28 06:25:13;;;;;;;21.55;12.15;;;;;;;3.06;100.00;97405.53;5173360;27;20053;-53
2022/01/28 06:27:42;;;;;;;23.90;11.07;;;;;;;3.03;100.00;97419.81;5173416;27;20121;-54
2022/01/28 06:30:10;;;;;;;20.98;11.95;;;;;;;3.13;100.00;97413.03;5174028;27;20057;-52
2022/01/28 06:32:36;;;;;;;22.92;12.48;;;;;;;3.16;100.00;97406.88;5173401;27;20050;-52
2022/01/28 06:35:07;;;;;;;20.63;12.02;;;;;;;3.13;100.00;97414.94;5173746;27;20185;-52
2022/01/28 06:37:34;;;;;;;26.08;13.55;;;;;;;3.12;100.00;97408.75;5173230;27;20500;-51
2022/01/28 06:40:00;;;;;;;24.65;12.07;;;;;;;3.14;100.00;97406.47;5174141;27;20381;-54
2022/01/28 06:42:26;;;;;;;25.00;12.50;;;;;;;3.19;100.00;97421.63;5162832;27;20103;-52
2022/01/28 06:44:53;;;;;;;23.02;12.98;;;;;;;3.23;100.00;97415.16;5152940;27;20046;-53
2022/01/28 06:47:20;;;;;;;20.42;11.68;;;;;;;3.13;100.00;97426.56;5152959;27;20131;-53
2022/01/28 06:49:46;;;;;;;23.55;11.40;;;;;;;3.15;100.00;97423.50;5153011;27;20096;-54
2022/01/28 06:52:12;;;;;;;19.13;10.98;;;;;;;3.07;100.00;97428.00;5154076;27;20055;-54
2022/01/28 06:54:38;;;;;;;22.13;11.55;;;;;;;3.02;100.00;97418.22;5152734;27;20129;-51
2022/01/28 06:57:05;;;;;;;24.85;11.80;;;;;;;2.98;100.00;97411.19;5152834;27;20505;-51
2022/01/28 06:59:31;;;;;;;17.05;10.25;;;;;;;2.93;100.00;97409.56;5153074;27;20129;-52
2022/01/28 07:01:58;;;;;;;24.17;11.77;;;;;;;2.95;100.00;97398.38;5158602;27;20052;-53
2022/01/28 07:04:24;;;;;;;22.40;11.85;;;;;;;2.99;100.00;97393.81;5173705;27;20051;-54
2022/01/28 07:06:51;;;;;;;18.75;10.80;;;;;;;2.99;100.00;97405.41;5173441;27;20050;-52
2022/01/28 07:09:17;;;;;;;18.13;10.27;;;;;;;3.02;100.00;97396.56;5173264;27;20058;-52
2022/01/28 07:11:44;;;;;;;22.08;12.80;;;;;;;3.00;100.00;97401.59;5168987;27;20047;-51
2022/01/28 07:14:10;;;;;;;29.33;12.32;;;;;;;3.05;100.00;97400.50;5152275;27;20133;-54
2022/01/28 07:16:36;;;;;;;25.15;13.10;;;;;;;3.10;100.00;97386.69;5152461;27;20057;-53
2022/01/28 07:19:04;;;;;;;27.15;13.50;;;;;;;3.08;100.00;97394.38;5152111;27;20050;-54
2022/01/28 07:21:30;;;;;;;24.80;12.85;;;;;;;3.08;100.00;97391.66;5153291;27;20417;-53
2022/01/28 07:23:56;;;;;;;25.15;12.35;;;;;;;3.17;100.00;97394.16;5173212;27;20173;-55
2022/01/28 07:26:23;;;;;;;24.35;13.20;;;;;;;3.14;100.00;97392.16;5173452;27;20054;-51
2022/01/28 07:28:49;;;;;;;20.58;12.90;;;;;;;3.08;100.00;97396.31;5173198;27;20427;-52
2022/01/28 07:31:18;;;;;;;22.73;12.15;;;;;;;3.09;100.00;97393.22;5173391;27;20075;-54
2022/01/28 07:33:44;;;;;;;18.60;11.93;;;;;;;3.08;100.00;97397.09;5172967;27;20343;-55
2022/01/28 07:36:11;;;;;;;26.73;13.25;;;;;;;3.16;100.00;97392.56;5173178;27;20064;-54
2022/01/28 07:38:37;;;;;;;21.13;12.43;;;;;;;3.11;100.00;97393.66;5173133;27;20058;-53
2022/01/28 07:41:05;;;;;;;17.90;12.02;;;;;;;3.24;100.00;97395.06;5173170;27;20046;-54
2022/01/28 07:43:33;;;;;;;17.92;10.25;;;;;;;3.26;100.00;97397.41;5153660;27;20134;-54
2022/01/28 07:45:59;;;;;;;18.73;10.93;;;;;;;3.30;100.00;97392.84;5151747;27;20046;-55
2022/01/28 07:48:26;;;;;;;17.15;10.70;;;;;;;3.36;100.00;97401.44;5152261;27;20043;-50
2022/01/28 07:50:52;;;;;;;17.67;10.63;;;;;;;3.31;100.00;97407.94;5151931;27;20047;-55
2022/01/28 07:53:19;;;;;;;17.55;9.75;;;;;;;3.27;100.00;97407.88;5168484;27;20043;-53
2022/01/28 07:55:45;;;;;;;19.45;11.02;;;;;;;3.25;100.00;97410.16;5172658;27;20189;-52
2022/01/28 07:58:11;;;;;;;20.73;10.57;;;;;;;3.28;100.00;97414.84;5172776;27;20085;-55
2022/01/28 08:00:38;;;;;;;19.90;10.38;;;;;;;3.26;100.00;97410.94;5172492;27;20068;-55
2022/01/28 08:03:05;;;;;;;18.05;10.75;;;;;;;3.26;100.00;97411.72;5157981;27;20043;-53
2022/01/28 08:05:31;;;;;;;17.17;11.68;;;;;;;3.36;100.00;97420.41;5151443;27;20496;-55
2022/01/28 08:07:59;;;;;;;18.30;10.55;;;;;;;3.33;100.00;97413.00;5152013;27;20058;-49
2022/01/28 08:10:26;;;;;;;15.68;9.70;;;;;;;3.28;100.00;97420.28;5151798;27;20054;-50
2022/01/28 08:12:54;;;;;;;18.90;8.30;;;;;;;3.26;100.00;97421.78;5163827;27;20054;-52
2022/01/28 08:15:21;;;;;;;21.23;11.10;;;;;;;3.23;100.00;97420.59;5172651;27;20065;-53
2022/01/28 08:17:48;;;;;;;22.45;10.07;;;;;;;3.20;100.00;97429.41;5171785;27;20054;-51
2022/01/28 08:20:15;;;;;;;20.05;11.52;;;;;;;3.19;100.00;97429.75;5172584;27;20110;-51
2022/01/28 08:22:45;;;;;;;19.13;9.70;;;;;;;3.11;100.00;97415.31;5170580;27;20448;-53
2022/01/28 08:25:12;;;;;;;15.70;9.98;;;;;;;3.19;100.00;97410.81;5172274;27;20056;-54
2022/01/28 08:27:39;;;;;;;14.25;9.73;;;;;;;3.21;100.00;97412.03;5171965;27;20085;-51
2022/01/28 08:30:06;;;;;;;13.95;9.30;;;;;;;3.33;100.00;97402.16;5172356;27;20050;-50
2022/01/28 08:32:33;;;;;;;14.38;9.10;;;;;;;3.39;100.00;97408.84;5162592;27;20573;-54
2022/01/28 08:34:59;;;;;;;15.15;9.07;;;;;;;3.38;100.00;97420.84;5151068;27;20054;-53
2022/01/28 08:37:25;;;;;;;15.13;9.43;;;;;;;3.50;100.00;97434.22;5152206;27;20054;-53
2022/01/28 08:39:53;;;;;;;14.98;9.38;;;;;;;3.55;100.00;97425.78;5151426;27;20061;-54
2022/01/28 08:42:19;;;;;;;16.05;9.00;;;;;;;3.59;100.00;97431.25;5151760;27;20153;-53
2022/01/28 08:44:46;;;;;;;13.30;9.77;;;;;;;3.60;100.00;97439.03;5151450;27;20056;-54
2022/01/28 08:47:12;;;;;;;12.68;8.55;;;;;;;3.53;100.00;97444.31;5163607;27;20058;-53
2022/01/28 08:49:38;;;;;;;17.02;10.40;;;;;;;3.55;100.00;97450.16;5171548;27;20054;-52
2022/01/28 08:52:05;;;;;;;13.32;8.70;;;;;;;3.63;100.00;97448.34;5171923;27;20046;-53
2022/01/28 08:54:32;;;;;;;16.85;9.68;;;;;;;3.65;100.00;97457.69;5171802;27;20085;-52
2022/01/28 08:56:58;;;;;;;15.25;8.43;;;;;;;3.67;100.00;97454.66;5171847;27;20496;-53
2022/01/28 08:59:25;;;;;;;15.55;8.82;;;;;;;3.75;100.00;97459.03;5170950;27;20129;-55
2022/01/28 09:01:51;;;;;;;15.05;9.35;;;;;;;3.77;100.00;97467.59;5160017;27;20054;-52
2022/01/28 09:04:18;;;;;;;18.70;8.55;;;;;;;3.76;100.00;97464.06;5155192;27;20497;-50
2022/01/28 09:06:46;;;;;;;13.68;9.10;;;;;;;3.71;100.00;97471.75;5150986;27;20502;-56
2022/01/28 09:09:12;;;;;;;17.00;8.30;;;;;;;3.88;100.00;97465.84;5150968;27;20049;-48
2022/01/28 09:11:53;;;;;;;14.82;8.65;;;;;;;3.76;100.00;97476.84;5151274;27;20507;-49
2022/01/28 09:14:21;;;;;;;15.48;7.90;;;;;;;3.72;100.00;97473.31;5151950;27;20054;-52
2022/01/28 09:16:48;;;;;;;14.15;8.30;;;;;;;3.75;100.00;97457.09;5151161;27;20051;-51
2022/01/28 09:19:15;;;;;;;13.02;8.38;;;;;;;3.80;100.00;97463.34;5162463;27;20050;-49
2022/01/28 09:21:41;;;;;;;11.02;7.78;;;;;;;3.74;100.00;97460.97;5171694;27;20046;-51
2022/01/28 09:24:07;;;;;;;12.40;8.20;;;;;;;3.64;100.00;97466.97;5170317;27;20050;-51
2022/01/28 09:26:34;;;;;;;12.82;8.15;;;;;;;3.72;100.00;97473.31;5171280;27;20425;-53
2022/01/28 09:29:00;;;;;;;16.52;8.48;;;;;;;3.76;100.00;97463.28;5169558;27;20050;-48
2022/01/28 09:31:26;;;;;;;13.52;8.70;;;;;;;3.69;100.00;97474.78;5171381;27;20042;-49
2022/01/28 09:33:52;;;;;;;12.20;7.93;;;;;;;3.66;100.00;97469.31;5171386;27;20054;-52
2022/01/28 09:36:19;;;;;;;12.35;8.15;;;;;;;3.58;100.00;97463.00;5158267;27;20528;-52
2022/01/28 09:38:45;;;;;;;12.73;8.23;;;;;;;3.65;100.00;97456.91;5169798;27;20094;-55
2022/01/28 09:41:12;;;;;;;13.48;7.85;;;;;;;3.66;100.00;97453.84;5171939;27;20046;-50
2022/01/28 09:43:38;;;;;;;14.50;7.93;;;;;;;3.74;100.00;97452.06;5171346;27;20042;-62
2022/01/28 09:46:05;;;;;;;12.25;7.97;;;;;;;3.77;100.00;97456.75;5171471;27;20068;-57
2022/01/28 09:48:31;;;;;;;10.30;7.50;;;;;;;3.84;100.00;97443.31;5170238;27;20130;-54
2022/01/28 09:50:59;;;;;;;12.18;7.78;;;;;;;3.76;100.00;97455.94;5171531;27;20469;-51
2022/01/28 09:53:26;;;;;;;12.15;8.18;;;;;;;3.76;100.00;97447.81;5171075;27;20046;-54
2022/01/28 09:55:52;;;;;;;10.07;6.85;;;;;;;3.75;100.00;97457.09;5158114;27;20047;-54
2022/01/28 09:58:19;;;;;;;16.90;7.32;;;;;;;3.64;100.00;97447.22;5171048;27;20123;-54
2022/01/28 10:00:45;;;;;;;16.13;8.68;;;;;;;3.62;100.00;97439.44;5171498;27;20090;-50
2022/01/28 10:03:14;;;;;;;11.02;7.47;;;;;;;3.56;100.00;97427.34;5167828;27;20082;-54
2022/01/28 10:05:43;;;;;;;15.63;7.40;;;;;;;3.53;100.00;97428.88;5153967;27;20498;-53
2022/01/28 10:08:13;;;;;;;11.10;7.38;;;;;;;3.57;100.00;97426.22;5153637;27;20042;-53
2022/01/28 10:11:01;;;;;;;15.40;8.07;;;;;;;3.54;100.00;97413.38;5153786;27;20064;-53
2022/01/28 10:13:37;;;;;;;18.08;7.13;;;;;;;3.57;100.00;97414.59;5161649;27;20050;-57
2022/01/28 10:16:09;;;;;;;13.63;7.72;;;;;;;3.56;100.00;97404.88;5174863;27;20137;-53
2022/01/28 10:18:48;;;;;;;13.23;7.97;;;;;;;3.56;100.00;97411.06;5174195;27;20046;-50
2022/01/28 10:21:37;;;;;;;10.60;7.78;;;;;;;3.58;100.00;97405.31;5174434;27;20046;-52
2022/01/28 10:24:09;;;;;;;11.77;8.02;;;;;;;3.51;100.00;97397.84;5158014;27;20107;-51
2022/01/28 10:26:39;;;;;;;11.75;6.72;;;;;;;3.49;100.00;97392.78;5153491;27;20043;-55
2022/01/28 10:29:07;;;;;;;10.95;6.95;;;;;;;3.53;100.00;97380.09;5153488;27;20571;-51
2022/01/28 10:31:39;;;;;;;10.80;6.72;;;;;;;3.44;100.00;97384.19;5153147;27;20046;-50
2022/01/28 10:34:17;;;;;;;10.20;7.10;;;;;;;3.49;100.00;97379.22;5166134;27;20058;-54
2022/01/28 10:36:46;;;;;;;10.85;7.75;;;;;;;3.45;100.00;97372.97;5173966;27;20065;-54
2022/01/28 10:39:18;;;;;;;14.18;6.95;;;;;;;3.39;100.00;97368.22;5174018;27;20098;-54
2022/01/28 10:41:56;;;;;;;13.88;7.45;;;;;;;3.41;100.00;97368.66;5174169;27;20046;-58
2022/01/28 10:44:23;;;;;;;12.00;7.30;;;;;;;3.36;100.00;97367.00;5167577;27;20046;-56
2022/01/28 10:46:58;;;;;;;13.48;7.57;;;;;;;3.41;100.00;97361.31;5174080;27;20091;-51
2022/01/28 10:49:33;;;;;;;14.13;6.60;;;;;;;3.42;100.00;97357.44;5173889;27;20549;-53
2022/01/28 10:52:08;;;;;;;16.90;8.75;;;;;;;3.40;100.00;97365.16;5173887;27;20058;-52
2022/01/28 10:54:36;;;;;;;12.57;8.70;;;;;;;3.33;100.00;97354.19;5163851;27;20197;-55
2022/01/28 10:57:05;;;;;;;30.67;10.70;;;;;;;3.30;100.00;97350.28;5152792;27;20057;-52
2022/01/28 10:59:34;;;;;;;10.93;7.22;;;;;;;3.32;100.00;97349.13;5155415;27;20522;-49
2022/01/28 11:02:00;;;;;;;16.00;8.02;;;;;;;3.28;100.00;97344.44;5153256;27;20046;-49
2022/01/28 11:04:27;;;;;;;11.45;6.97;;;;;;;3.28;100.00;97339.03;5152931;27;20054;-53
2022/01/28 11:06:56;;;;;;;12.98;8.10;;;;;;;3.29;100.00;97327.03;5153012;27;20154;-51
2022/01/28 11:09:23;;;;;;;18.23;7.78;;;;;;;3.29;100.00;97331.69;5152545;27;20046;-52
2022/01/28 11:11:50;;;;;;;11.25;7.50;;;;;;;3.33;100.00;97320.91;5154712;27;20063;-50
2022/01/28 11:14:18;;;;;;;13.93;8.02;;;;;;;3.39;100.00;97322.16;5152715;27;20553;-50
2022/01/28 11:16:45;;;;;;;10.82;7.50;;;;;;;3.37;100.00;97321.78;5159062;27;20050;-51
2022/01/28 11:19:14;;;;;;;12.43;8.27;;;;;;;3.35;100.00;97324.03;5173033;27;20058;-55
2022/01/28 11:21:52;;;;;;;15.43;7.45;;;;;;;3.37;100.00;97327.97;5173788;27;20057;-53
2022/01/28 11:24:31;;;;;;;10.70;7.22;;;;;;;3.38;100.00;97326.03;5173570;27;20052;-57
2022/01/28 11:27:07;;;;;;;11.70;7.60;;;;;;;3.44;100.00;97325.38;5173001;27;20050;-55
2022/01/28 11:29:34;;;;;;;14.32;6.88;;;;;;;3.44;100.00;97325.38;5173352;27;20525;-50
2022/01/28 11:32:13;;;;;;;11.55;7.78;;;;;;;3.42;100.00;97329.56;5173778;27;20046;-52
2022/01/28 11:34:55;;;;;;;11.73;7.18;;;;;;;3.26;100.00;97322.34;5169642;27;20081;-53
2022/01/28 11:37:26;;;;;;;12.38;6.78;;;;;;;3.26;100.00;97308.81;5151971;27;20143;-54
2022/01/28 11:39:52;;;;;;;12.43;7.50;;;;;;;3.18;100.00;97307.13;5152103;27;20047;-51
2022/01/28 11:42:26;;;;;;;17.30;8.05;;;;;;;3.12;100.00;97303.16;5159711;27;20102;-52
2022/01/28 11:44:55;;;;;;;19.33;9.23;;;;;;;3.12;100.00;97296.97;5173060;27;20050;-52
2022/01/28 11:47:23;;;;;;;13.45;8.88;;;;;;;3.01;100.00;97289.44;5172750;27;20586;-50
2022/01/28 11:49:55;;;;;;;11.35;6.88;;;;;;;3.02;100.00;97279.41;5172900;27;20050;-53
2022/01/28 11:52:24;;;;;;;9.85;6.20;;;;;;;3.01;100.00;97265.09;5164280;27;20051;-52
2022/01/28 11:54:52;;;;;;;9.07;5.82;;;;;;;3.01;100.00;97258.88;5150343;27;20421;-55
2022/01/28 11:57:22;;;;;;;9.68;5.85;;;;;;;3.01;100.00;97259.66;5134838;27;20398;-53
2022/01/28 11:59:49;;;;;;;9.38;5.88;;;;;;;3.06;100.00;97250.44;5152613;27;20055;-53
2022/01/28 12:02:20;;;;;;;8.45;5.80;;;;;;;3.06;100.00;97253.16;5151441;27;20134;-53
2022/01/28 12:04:46;;;;;;;8.20;5.22;;;;;;;3.03;100.00;97245.75;5151938;27;20053;-53
2022/01/28 12:07:17;;;;;;;8.88;5.47;;;;;;;3.11;100.00;97243.97;5151606;27;20061;-52
2022/01/28 12:09:46;;;;;;;10.82;5.90;;;;;;;3.17;100.00;97246.00;5159491;27;20042;-54
2022/01/28 12:12:13;;;;;;;8.52;5.63;;;;;;;3.21;100.00;97243.34;5172593;27;20046;-54
2022/01/28 12:15:12;;;;;;;10.75;6.18;;;;;;;3.24;100.00;97242.63;5170696;27;20102;-54
2022/01/28 12:17:47;;;;;;;11.13;6.10;;;;;;;3.22;100.00;97245.69;5172075;27;20062;-54
2022/01/28 12:20:23;;;;;;;9.13;5.68;;;;;;;3.22;100.00;97251.09;5170616;27;20494;-53
2022/01/28 12:23:02;;;;;;;15.18;5.18;;;;;;;3.18;100.00;97261.09;5172146;27;20046;-53
2022/01/28 12:25:46;;;;;;;8.82;4.70;;;;;;;3.15;100.00;97271.88;5171751;27;20089;-55
2022/01/28 12:28:13;;;;;;;8.20;5.13;;;;;;;3.08;100.00;97274.47;5171958;27;20427;-54